Time;durP1;ratioP1;P1;durP2;ratioP2;P2;SDS_P1;SDS_P2;PMS_P1;PMS_P2;Temp;Humidity;BMP_temperature;BMP_pressure;BME280_temperature;BME280_humidity;BME280_pressure;Samples;Min_cycle;Max_cycle;Signal;HPM_P1;HPM_P2
2022/09/28 00:02:00;;;;;;;13.77;7.23;;;7.10;99.90;;;;;;6280159;22;20012;-94
2022/09/28 00:04:26;;;;;;;13.97;7.40;;;7.10;99.90;;;;;;6294411;22;20012;-92
2022/09/28 00:06:52;;;;;;;15.83;8.13;;;7.10;99.90;;;;;;6296159;22;20391;-94
2022/09/28 00:09:17;;;;;;;14.60;7.73;;;7.10;99.90;;;;;;6251712;22;20019;-93
2022/09/28 00:11:44;;;;;;;14.33;7.70;;;7.10;99.90;;;;;;6249732;22;20103;-94
2022/09/28 00:14:10;;;;;;;17.80;8.37;;;7.10;99.90;;;;;;6276454;22;20056;-93
2022/09/28 00:16:42;;;;;;;15.17;7.93;;;7.10;99.90;;;;;;6248400;22;20108;-93
2022/09/28 00:19:10;;;;;;;15.77;8.47;;;7.10;99.90;;;;;;6249355;22;20020;-93
2022/09/28 00:21:37;;;;;;;15.00;8.03;;;7.20;99.90;;;;;;6250040;22;20016;-93
2022/09/28 00:24:14;;;;;;;16.10;8.80;;;7.20;99.90;;;;;;6276085;22;20027;-93
2022/09/28 00:26:49;;;;;;;18.03;8.77;;;7.20;99.90;;;;;;6249888;22;20091;-93
2022/09/28 00:29:21;;;;;;;16.93;8.73;;;7.20;99.90;;;;;;6249656;22;20085;-93
2022/09/28 00:31:48;;;;;;;17.10;9.37;;;7.20;99.90;;;;;;6249454;22;20047;-93
2022/09/28 00:34:14;;;;;;;16.10;8.67;;;7.20;99.90;;;;;;6258547;22;20016;-93
2022/09/28 00:36:44;;;;;;;18.27;9.90;;;7.20;99.90;;;;;;6258803;22;20012;-93
2022/09/28 00:39:10;;;;;;;18.30;9.90;;;7.20;99.90;;;;;;6248452;22;20012;-93
2022/09/28 00:41:36;;;;;;;17.53;9.50;;;8.00;99.90;;;;;;6263268;22;20035;-93
2022/09/28 00:44:24;;;;;;;17.23;9.73;;;7.20;99.90;;;;;;6283219;22;20019;-93
2022/09/28 00:47:19;;;;;;;20.00;10.17;;;7.10;99.90;;;;;;6276778;22;20023;-93
2022/09/28 00:49:53;;;;;;;19.33;9.38;;;7.20;99.90;;;;;;6249962;22;20024;-93
2022/09/28 00:52:46;;;;;;;16.87;9.03;;;7.20;99.90;;;;;;6276239;22;20020;-93
2022/09/28 00:55:15;;;;;;;17.10;9.40;;;7.10;99.90;;;;;;6194338;22;20073;-93
2022/09/28 00:57:47;;;;;;;18.67;9.33;;;7.10;99.90;;;;;;6249470;22;20016;-93
2022/09/28 01:00:14;;;;;;;17.93;9.33;;;7.10;99.90;;;;;;6248888;22;20043;-93
2022/09/28 01:02:40;;;;;;;17.43;9.57;;;7.10;99.90;;;;;;6249805;22;20058;-94
2022/09/28 01:05:08;;;;;;;18.20;9.13;;;7.00;99.90;;;;;;6286357;22;20038;-93
2022/09/28 01:07:35;;;;;;;18.80;9.77;;;7.00;99.90;;;;;;6258074;22;20016;-93
2022/09/28 01:10:01;;;;;;;19.73;9.63;;;7.00;99.90;;;;;;6249579;22;20012;-93
2022/09/28 01:12:27;;;;;;;17.33;9.70;;;8.30;99.90;;;;;;6276746;22;20019;-92
2022/09/28 01:14:57;;;;;;;19.43;10.33;;;7.00;99.90;;;;;;6276468;22;20027;-93
2022/09/28 01:17:40;;;;;;;23.37;10.20;;;7.90;99.90;;;;;;6291731;22;20023;-93
2022/09/28 01:20:20;;;;;;;19.20;9.63;;;6.80;99.90;;;;;;6254177;22;20447;-93
2022/09/28 01:23:18;;;;;;;20.07;10.60;;;7.00;99.90;;;;;;6249007;22;20007;-94
2022/09/28 01:26:01;;;;;;;17.33;9.60;;;7.00;99.90;;;;;;6202159;22;20020;-94
2022/09/28 01:28:28;;;;;;;18.98;10.88;;;6.90;99.90;;;;;;6250875;22;20475;-94
2022/09/28 01:31:21;;;;;;;20.00;10.07;;;7.00;99.90;;;;;;6251722;22;20016;-94
2022/09/28 01:33:54;;;;;;;22.17;10.63;;;7.00;99.90;;;;;;6251762;22;20451;-94
2022/09/28 01:36:22;;;;;;;20.08;10.65;;;7.00;99.90;;;;;;6277718;22;20011;-94
2022/09/28 01:38:54;;;;;;;20.13;11.03;;;7.00;99.90;;;;;;6278823;22;20023;-93
2022/09/28 01:41:22;;;;;;;20.73;10.67;;;7.10;99.90;;;;;;6251073;22;20023;-94
2022/09/28 01:43:54;;;;;;;20.33;11.23;;;7.10;99.90;;;;;;6251159;22;20016;-94
2022/09/28 01:46:24;;;;;;;20.83;11.30;;;7.10;99.90;;;;;;6251027;22;20016;-94
2022/09/28 01:48:57;;;;;;;19.67;10.97;;;8.00;99.90;;;;;;6251786;22;20058;-93
2022/09/28 01:51:29;;;;;;;19.38;10.68;;;7.10;99.90;;;;;;6250999;22;20380;-93
2022/09/28 01:53:59;;;;;;;22.83;10.90;;;7.10;99.90;;;;;;6294596;22;20015;-94
2022/09/28 01:56:43;;;;;;;21.10;11.35;;;7.00;99.90;;;;;;6258173;22;20020;-93
2022/09/28 01:59:20;;;;;;;19.17;10.63;;;7.00;99.90;;;;;;6278457;22;20026;-94
2022/09/28 02:01:54;;;;;;;25.80;11.50;;;7.00;99.90;;;;;;6278512;22;20091;-94
2022/09/28 02:04:31;;;;;;;22.73;11.57;;;7.00;99.90;;;;;;6250197;22;20024;-94
2022/09/28 02:07:11;;;;;;;23.37;11.83;;;7.00;99.90;;;;;;6257244;22;20123;-94
2022/09/28 02:09:41;;;;;;;25.20;12.13;;;7.00;99.90;;;;;;6258636;22;20438;-93
2022/09/28 02:12:34;;;;;;;23.03;12.03;;;7.40;99.90;;;;;;6250976;22;20019;-93
2022/09/28 02:15:16;;;;;;;25.33;12.30;;;7.00;99.90;;;;;;6276653;22;20019;-93
2022/09/28 02:17:42;;;;;;;26.03;12.90;;;7.00;99.90;;;;;;6252436;22;20016;-94
2022/09/28 02:20:08;;;;;;;27.40;13.03;;;7.00;99.90;;;;;;6250825;22;20033;-93
2022/09/28 02:22:49;;;;;;;26.00;13.30;;;7.00;99.90;;;;;;6278550;22;20022;-94
2022/09/28 02:25:30;;;;;;;25.80;13.00;;;7.00;99.90;;;;;;6251873;22;20018;-93
2022/09/28 02:28:04;;;;;;;25.87;12.30;;;7.00;99.90;;;;;;6281519;22;20011;-94
2022/09/28 02:30:30;;;;;;;;;;;7.00;99.90;;;;;;6269317;22;20020;-94
2022/09/28 02:33:08;;;;;;;28.60;13.20;;;7.00;99.90;;;;;;6278571;22;20405;-94
2022/09/28 02:35:34;;;;;;;28.03;13.37;;;7.00;99.90;;;;;;6277903;22;20439;-93
2022/09/28 02:38:00;;;;;;;26.40;13.60;;;7.00;99.90;;;;;;6278899;22;20021;-92
2022/09/28 02:40:31;;;;;;;27.57;13.00;;;6.90;99.90;;;;;;6255293;22;20026;-94
2022/09/28 02:43:12;;;;;;;25.57;12.77;;;7.00;99.90;;;;;;6255239;22;20087;-92
2022/09/28 02:45:59;;;;;;;23.00;12.57;;;6.90;99.90;;;;;;6277507;22;20069;-93
2022/09/28 02:48:27;;;;;;;25.03;12.30;;;6.80;99.90;;;;;;6250492;22;20015;-94
2022/09/28 02:51:04;;;;;;;25.83;12.60;;;6.70;99.90;;;;;;6251266;22;20020;-93
2022/09/28 02:53:51;;;;;;;24.43;13.00;;;6.70;99.90;;;;;;6277179;22;20057;-93
2022/09/28 02:56:50;;;;;;;24.30;12.53;;;6.70;99.90;;;;;;6250298;22;20020;-94
2022/09/28 02:59:19;;;;;;;22.93;11.97;;;6.60;99.90;;;;;;6249684;22;20016;-94
2022/09/28 03:01:50;;;;;;;24.60;12.33;;;6.60;99.90;;;;;;6250366;22;20016;-93
2022/09/28 03:04:41;;;;;;;24.57;12.47;;;6.60;99.90;;;;;;6255461;22;19992;-93
2022/09/28 03:07:21;;;;;;;27.97;13.57;;;6.60;99.90;;;;;;6254442;22;20020;-94
2022/09/28 03:10:26;;;;;;;24.00;11.93;;;6.60;99.90;;;;;;6255377;22;20019;-93
2022/09/28 03:12:52;;;;;;;24.57;11.93;;;6.50;99.90;;;;;;6178534;22;20071;-92
2022/09/28 03:15:25;;;;;;;26.20;12.50;;;6.50;99.90;;;;;;6250343;22;20082;-94
2022/09/28 03:17:50;;;;;;;23.60;12.40;;;6.50;99.90;;;;;;6250366;22;20019;-93
2022/09/28 03:20:16;;;;;;;25.17;12.37;;;6.50;99.90;;;;;;6276483;22;20020;-93
2022/09/28 03:22:42;;;;;;;24.17;12.20;;;6.50;99.90;;;;;;6250509;22;20020;-94
2022/09/28 03:25:09;;;;;;;26.07;12.57;;;6.50;99.90;;;;;;6249823;22;20030;-94
2022/09/28 03:27:34;;;;;;;25.50;12.60;;;6.40;99.90;;;;;;6249388;22;20011;-93
2022/09/28 03:30:00;;;;;;;29.67;13.00;;;6.40;99.90;;;;;;6249619;22;20035;-93
2022/09/28 03:32:26;;;;;;;27.20;12.63;;;6.40;99.90;;;;;;6250031;22;20114;-94
2022/09/28 03:34:52;;;;;;;24.87;12.43;;;6.40;99.90;;;;;;6277187;22;20345;-94
2022/09/28 03:37:17;;;;;;;27.43;12.57;;;6.40;99.90;;;;;;6277124;22;20012;-93
2022/09/28 03:39:43;;;;;;;23.77;12.40;;;6.40;99.90;;;;;;6253996;22;20027;-93
2022/09/28 03:42:08;;;;;;;24.90;11.80;;;6.30;99.90;;;;;;6260887;22;20043;-93
2022/09/28 03:44:34;;;;;;;28.27;12.77;;;6.30;99.90;;;;;;6250433;22;20335;-94
2022/09/28 03:47:00;;;;;;;25.53;12.67;;;6.30;99.90;;;;;;6250507;22;20436;-93
2022/09/28 03:49:25;;;;;;;25.67;13.10;;;6.30;99.90;;;;;;6276857;22;20025;-94
2022/09/28 03:51:57;;;;;;;26.67;13.27;;;6.20;99.90;;;;;;6250643;22;20317;-94
2022/09/28 03:54:22;;;;;;;25.13;12.87;;;6.50;99.90;;;;;;6276960;22;20016;-94
2022/09/28 03:56:49;;;;;;;27.13;13.00;;;6.20;99.90;;;;;;6250057;22;20011;-93
2022/09/28 03:59:14;;;;;;;27.43;13.27;;;6.10;99.90;;;;;;6250554;22;20102;-93
2022/09/28 04:01:40;;;;;;;23.53;12.20;;;6.10;99.90;;;;;;6249625;22;20091;-93
2022/09/28 04:04:05;;;;;;;24.50;12.13;;;6.10;99.90;;;;;;6275662;22;20061;-94
2022/09/28 04:06:31;;;;;;;25.53;12.83;;;6.00;99.90;;;;;;6277548;22;20046;-93
2022/09/28 04:08:57;;;;;;;25.57;12.73;;;6.00;99.90;;;;;;6277201;22;20443;-93
2022/09/28 04:11:23;;;;;;;24.00;12.10;;;6.00;99.90;;;;;;6251066;22;20019;-94
2022/09/28 04:13:49;;;;;;;27.03;12.73;;;5.90;99.90;;;;;;6279346;22;20019;-93
2022/09/28 04:16:14;;;;;;;28.17;12.90;;;6.10;99.90;;;;;;6283017;22;20011;-93
2022/09/28 04:18:41;;;;;;;26.03;13.13;;;5.90;99.90;;;;;;6265439;22;20016;-93
2022/09/28 04:21:09;;;;;;;25.43;13.40;;;6.00;99.90;;;;;;6250167;22;20023;-93
2022/09/28 04:23:37;;;;;;;27.10;13.20;;;6.00;99.90;;;;;;6277800;22;20043;-93
2022/09/28 04:26:05;;;;;;;27.80;14.63;;;6.10;99.90;;;;;;6277181;22;20045;-93
2022/09/28 04:31:17;;;;;;;32.47;14.95;;;6.20;99.90;;;;;;6248896;22;20455;-94
2022/09/28 04:33:43;;;;;;;31.17;14.50;;;6.20;99.90;;;;;;6249971;22;20379;-93
2022/09/28 04:36:09;;;;;;;31.17;13.80;;;6.20;99.90;;;;;;6276686;22;20012;-93
2022/09/28 04:38:35;;;;;;;34.40;14.87;;;6.20;99.90;;;;;;6249226;22;20288;-94
2022/09/28 04:41:01;;;;;;;25.37;10.97;;;6.20;99.90;;;;;;6277148;22;20016;-93
2022/09/28 04:43:27;;;;;;;32.90;14.23;;;6.20;99.90;;;;;;6249552;22;20027;-93
2022/09/28 04:45:58;;;;;;;34.93;15.17;;;6.30;99.90;;;;;;6253077;22;20020;-95
2022/09/28 04:48:24;;;;;;;55.60;17.53;;;6.40;99.90;;;;;;6296374;22;20038;-93
2022/09/28 04:50:57;;;;;;;61.63;17.57;;;6.40;99.90;;;;;;6281327;22;20379;-94
2022/09/28 04:53:23;;;;;;;76.70;18.60;;;6.50;99.90;;;;;;6264824;22;20019;-94
2022/09/28 04:55:56;;;;;;;155.67;19.57;;;6.50;99.90;;;;;;6287658;22;20019;-93
2022/09/28 04:58:22;;;;;;;124.67;19.13;;;6.60;99.90;;;;;;6248495;22;20406;-93
2022/09/28 05:00:50;;;;;;;119.13;15.60;;;6.60;99.90;;;;;;6278773;22;20019;-94
2022/09/28 05:03:16;;;;;;;107.50;16.73;;;6.60;99.90;;;;;;6251200;22;20026;-93
2022/09/28 05:05:46;;;;;;;118.53;16.53;;;6.60;99.90;;;;;;6251363;22;20673;-94
2022/09/28 05:08:12;;;;;;;131.50;14.87;;;6.60;99.90;;;;;;6278681;22;20054;-94
2022/09/28 05:10:40;;;;;;;174.30;16.90;;;6.60;99.90;;;;;;6274899;22;20020;-93
2022/09/28 05:13:34;;;;;;;103.77;16.47;;;6.00;99.90;;;;;;6250813;22;20019;-94
2022/09/28 05:16:00;;;;;;;115.47;15.00;;;6.20;99.90;;;;;;6251514;22;20039;-93
2022/09/28 05:18:26;;;;;;;144.47;16.37;;;6.50;99.90;;;;;;6278894;22;20386;-93
2022/09/28 05:20:51;;;;;;;122.07;13.77;;;6.50;99.90;;;;;;6256938;22;20015;-93
2022/09/28 05:23:17;;;;;;;148.90;17.23;;;6.50;99.90;;;;;;6256003;22;20012;-93
2022/09/28 05:25:46;;;;;;;172.53;18.53;;;7.30;99.90;;;;;;6285954;22;20020;-93
2022/09/28 05:28:12;;;;;;;196.23;18.23;;;6.50;99.90;;;;;;6264306;22;20012;-93
2022/09/28 05:30:37;;;;;;;112.47;15.47;;;6.50;99.90;;;;;;6258462;22;20051;-93
2022/09/28 05:33:04;;;;;;;113.43;14.37;;;6.50;99.90;;;;;;6252046;22;20019;-94
2022/09/28 05:35:30;;;;;;;144.43;16.77;;;6.50;99.90;;;;;;6277986;22;20026;-94
2022/09/28 05:38:01;;;;;;;176.17;17.67;;;6.50;99.90;;;;;;6278878;22;20015;-94
2022/09/28 05:40:26;;;;;;;189.90;18.00;;;6.50;99.90;;;;;;6278160;22;20045;-94
2022/09/28 05:42:52;;;;;;;164.80;16.67;;;6.50;99.90;;;;;;6250463;22;20082;-93
2022/09/28 05:45:24;;;;;;;113.73;14.63;;;7.30;99.90;;;;;;6251002;22;20400;-94
2022/09/28 05:47:49;;;;;;;175.53;19.10;;;6.60;99.90;;;;;;6278886;22;20011;-93
2022/09/28 05:50:15;;;;;;;161.88;15.93;;;6.60;99.90;;;;;;6251397;22;20133;-93
2022/09/28 05:52:42;;;;;;;152.00;15.03;;;6.50;99.90;;;;;;6278666;22;20016;-93
2022/09/28 05:55:08;;;;;;;154.20;17.60;;;6.60;99.90;;;;;;6250775;22;20431;-93
2022/09/28 05:57:33;;;;;;;122.90;15.43;;;6.60;99.90;;;;;;6278396;22;20022;-93
2022/09/28 05:59:59;;;;;;;86.40;14.40;;;6.60;99.90;;;;;;6253733;22;20015;-93
2022/09/28 06:02:25;;;;;;;68.60;14.07;;;6.60;99.90;;;;;;6281752;22;20045;-94
2022/09/28 06:04:50;;;;;;;95.10;13.03;;;6.60;99.90;;;;;;6265423;22;20020;-92
2022/09/28 06:07:17;;;;;;;128.87;15.67;;;6.60;99.90;;;;;;6251711;22;20016;-90
2022/09/28 06:09:46;;;;;;;100.33;14.50;;;6.60;99.90;;;;;;6249751;22;20158;-90
2022/09/28 06:12:11;;;;;;;81.77;14.40;;;6.60;99.90;;;;;;6249540;22;20022;-91
2022/09/28 06:14:37;;;;;;;98.83;14.90;;;6.70;99.90;;;;;;6277956;22;20011;-89
2022/09/28 06:17:03;;;;;;;102.90;14.93;;;6.60;99.90;;;;;;6276852;22;20031;-92
2022/09/28 06:19:29;;;;;;;119.30;18.03;;;6.60;99.90;;;;;;6278314;22;20041;-90
2022/09/28 06:21:55;;;;;;;96.40;15.57;;;7.50;99.90;;;;;;6286889;22;20019;-90
2022/09/28 06:24:20;;;;;;;72.07;13.27;;;6.70;99.90;;;;;;6278589;22;20023;-91
2022/09/28 06:26:46;;;;;;;134.90;14.50;;;7.20;99.90;;;;;;6250024;22;20015;-89
2022/09/28 06:29:17;;;;;;;71.00;13.67;;;6.80;99.90;;;;;;6276094;22;20012;-87
2022/09/28 06:31:44;;;;;;;86.20;15.07;;;6.80;99.90;;;;;;6276149;22;20019;-88
2022/09/28 06:34:11;;;;;;;58.30;13.03;;;6.80;99.90;;;;;;6249198;22;20016;-87
2022/09/28 06:36:37;;;;;;;110.43;14.90;;;7.00;99.90;;;;;;6249686;22;20022;-86
2022/09/28 06:39:03;;;;;;;84.37;19.40;;;7.50;99.90;;;;;;6248854;22;20024;-87
2022/09/28 06:41:28;;;;;;;74.80;15.20;;;7.00;99.90;;;;;;6276768;22;20474;-86
2022/09/28 06:43:55;;;;;;;71.50;13.93;;;7.00;99.90;;;;;;6275632;22;20339;-86
2022/09/28 06:46:20;;;;;;;84.90;14.70;;;7.10;99.90;;;;;;6276380;22;20015;-86
2022/09/28 06:48:46;;;;;;;62.03;13.47;;;7.10;99.90;;;;;;6249598;22;20026;-87
2022/09/28 06:51:12;;;;;;;50.27;11.87;;;7.10;99.90;;;;;;6275749;22;20062;-87
2022/09/28 06:53:37;;;;;;;64.87;24.67;;;8.20;99.90;;;;;;6249829;22;20546;-87
2022/09/28 06:56:04;;;;;;;64.83;24.03;;;7.30;99.90;;;;;;6249593;22;20340;-88
2022/09/28 06:58:31;;;;;;;47.83;13.63;;;8.60;99.90;;;;;;6248056;22;20011;-87
2022/09/28 07:00:59;;;;;;;83.17;13.57;;;7.40;99.90;;;;;;6249246;22;20321;-86
2022/09/28 07:03:26;;;;;;;58.47;11.70;;;7.40;99.90;;;;;;6276765;22;20019;-85
2022/09/28 07:05:53;;;;;;;49.57;12.67;;;7.40;99.90;;;;;;6276159;22;20065;-85
2022/09/28 07:08:23;;;;;;;39.73;10.70;;;7.40;99.90;;;;;;6248589;22;20028;-85
2022/09/28 07:10:51;;;;;;;34.10;10.37;;;7.40;99.90;;;;;;6276181;22;20019;-85
2022/09/28 07:15:59;;;;;;;41.37;10.50;;;7.40;99.90;;;;;;6269487;22;20024;-85
2022/09/28 07:24:18;;;;;;;44.10;12.40;;;7.60;99.90;;;;;;6267234;22;20055;-86
2022/09/28 07:26:44;;;;;;;53.67;10.25;;;7.40;99.90;;;;;;6248278;22;20019;-86
2022/09/28 07:29:11;;;;;;;25.93;12.77;;;7.30;99.90;;;;;;6248629;22;20020;-86
2022/09/28 07:31:38;;;;;;;42.27;10.30;;;7.60;99.90;;;;;;6248683;22;20012;-86
2022/09/28 07:34:04;;;;;;;32.27;11.13;;;7.60;99.90;;;;;;6248025;22;20043;-85
2022/09/28 07:36:30;;;;;;;24.05;9.40;;;7.60;99.90;;;;;;6275947;22;20443;-85
2022/09/28 07:38:56;;;;;;;40.67;15.38;;;9.00;99.90;;;;;;6248758;22;20102;-86
2022/09/28 07:41:31;;;;;;;37.83;13.80;;;7.80;99.90;;;;;;6247695;22;20514;-85
2022/09/28 07:44:06;;;;;;;25.27;8.02;;;7.80;99.90;;;;;;6248915;22;20312;-84
2022/09/28 07:46:36;;;;;;;17.98;7.18;;;7.90;99.90;;;;;;6248905;22;20020;-85
2022/09/28 07:49:04;;;;;;;26.40;10.55;;;7.90;99.90;;;;;;6247921;22;20019;-85
2022/09/28 07:51:31;;;;;;;20.48;8.90;;;8.00;99.90;;;;;;6251433;22;20016;-85
2022/09/28 07:53:56;;;;;;;24.10;13.40;;;8.00;99.90;;;;;;6249404;22;20012;-85
2022/09/28 07:56:22;;;;;;;23.43;10.67;;;8.10;99.90;;;;;;6274486;22;20342;-84
2022/09/28 07:58:48;;;;;;;20.47;9.00;;;8.30;99.90;;;;;;6248647;22;20020;-88
2022/09/28 08:01:15;;;;;;;20.33;8.48;;;8.50;99.90;;;;;;6247460;22;20012;-84
2022/09/28 08:03:46;;;;;;;26.45;14.15;;;8.50;99.90;;;;;;6248577;22;20029;-85
2022/09/28 08:06:15;;;;;;;23.90;10.30;;;8.60;99.90;;;;;;6275646;22;20015;-84
2022/09/28 08:08:43;;;;;;;22.83;11.33;;;8.70;99.90;;;;;;6247910;22;20057;-84
2022/09/28 08:11:12;;;;;;;24.90;7.93;;;8.80;99.90;;;;;;6248361;22;20089;-84
2022/09/28 08:13:38;;;;;;;19.02;7.35;;;8.70;99.90;;;;;;6248873;22;20020;-83
2022/09/28 08:16:07;;;;;;;23.37;8.40;;;8.70;99.90;;;;;;6274500;22;20328;-83
2022/09/28 08:18:36;;;;;;;16.10;6.53;;;8.60;99.90;;;;;;6275885;22;20054;-86
2022/09/28 08:23:47;;;;;;;15.35;6.35;;;8.70;99.90;;;;;;6274606;22;20047;-84
2022/09/28 08:26:13;;;;;;;15.73;6.60;;;8.80;99.90;;;;;;6248217;22;20023;-84
2022/09/28 08:28:39;;;;;;;15.27;6.47;;;9.10;99.90;;;;;;6276121;22;20012;-84
2022/09/28 08:31:06;;;;;;;17.53;7.10;;;10.40;99.90;;;;;;6275040;22;20058;-83
2022/09/28 08:33:32;;;;;;;17.10;7.85;;;9.20;99.90;;;;;;6248593;22;20092;-84
2022/09/28 08:35:59;;;;;;;46.38;26.75;;;9.60;99.90;;;;;;6277928;22;20109;-85
2022/09/28 08:38:26;;;;;;;18.15;8.43;;;9.20;99.90;;;;;;6249341;22;20988;-87
2022/09/28 08:41:11;;;;;;;19.52;9.70;;;9.30;99.90;;;;;;6278294;22;20054;-85
2022/09/28 08:43:48;;;;;;;19.83;8.82;;;9.30;99.90;;;;;;6249666;22;20024;-86
2022/09/28 08:46:18;;;;;;;17.40;7.57;;;9.20;99.90;;;;;;6250113;22;20436;-84
2022/09/28 08:49:11;;;;;;;16.17;7.07;;;9.20;99.90;;;;;;6250580;22;20444;-84
2022/09/28 08:51:42;;;;;;;14.27;6.22;;;9.30;99.90;;;;;;6249538;22;20011;-84
2022/09/28 08:54:48;;;;;;;15.60;7.78;;;9.50;99.90;;;;;;6277055;22;20388;-84
2022/09/28 08:57:19;;;;;;;13.73;6.03;;;9.50;99.90;;;;;;6269099;22;20054;-84
2022/09/28 08:59:54;;;;;;;14.68;6.43;;;9.40;99.90;;;;;;6276687;22;20016;-85
2022/09/28 09:02:38;;;;;;;15.98;7.20;;;9.40;99.90;;;;;;6276794;22;20051;-85
2022/09/28 09:05:06;;;;;;;15.23;6.55;;;9.40;99.90;;;;;;6250033;22;20321;-85
2022/09/28 09:13:50;;;;;;;13.23;5.82;;;9.40;99.90;;;;;;6188347;23;20021;-85
2022/09/28 09:16:39;;;;;;;12.48;6.47;;;9.60;99.90;;;;;;6189303;23;20437;-85
2022/09/28 09:19:15;;;;;;;14.02;5.43;;;9.60;99.90;;;;;;6216015;23;20028;-84
2022/09/28 09:21:49;;;;;;;13.50;5.10;;;10.00;99.90;;;;;;6189955;23;20020;-84
2022/09/28 09:24:14;;;;;;;;;;;9.60;99.90;;;;;;6189714;23;20024;-84
2022/09/28 09:26:41;;;;;;;12.70;5.10;;;9.70;99.90;;;;;;6215348;23;19915;-85
2022/09/28 09:29:19;;;;;;;12.75;5.25;;;10.90;99.90;;;;;;6189179;23;20471;-85
2022/09/28 09:32:09;;;;;;;13.00;5.45;;;9.80;99.90;;;;;;6216326;23;20092;-84
2022/09/28 09:34:50;;;;;;;12.30;5.25;;;9.90;99.90;;;;;;6188717;23;20024;-84
2022/09/28 09:37:51;;;;;;;14.68;4.90;;;10.10;99.90;;;;;;6216024;23;20096;-85
2022/09/28 09:40:29;;;;;;;11.60;4.72;;;10.30;99.90;;;;;;6188715;23;20017;-84
2022/09/28 09:42:57;;;;;;;11.43;4.50;;;10.20;99.90;;;;;;6189554;23;20017;-84
2022/09/28 09:45:26;;;;;;;13.17;4.87;;;10.30;99.90;;;;;;6188512;23;20039;-84
2022/09/28 09:48:06;;;;;;;11.57;4.80;;;10.20;99.90;;;;;;6215231;23;20369;-84
2022/09/28 09:50:50;;;;;;;11.95;5.20;;;10.20;99.90;;;;;;6214516;23;20040;-85
2022/09/28 09:53:18;;;;;;;12.68;4.97;;;10.20;99.90;;;;;;6215928;23;20028;-85
2022/09/28 09:55:46;;;;;;;11.43;4.82;;;10.20;99.90;;;;;;6188729;23;20048;-84
2022/09/28 09:58:20;;;;;;;11.43;5.05;;;11.10;99.90;;;;;;6188891;23;20511;-84
2022/09/28 10:00:48;;;;;;;;;;;10.20;99.90;;;;;;6189298;23;20052;-84
2022/09/28 10:03:28;;;;;;;12.48;5.45;;;11.20;99.90;;;;;;6215639;23;20398;-86
2022/09/28 10:06:16;;;;;;;14.73;6.25;;;10.60;99.90;;;;;;6189809;23;20063;-86
2022/09/28 10:08:57;;;;;;;13.57;5.85;;;10.50;99.90;;;;;;6188692;23;20024;-88
2022/09/28 10:11:30;;;;;;;12.32;5.10;;;10.70;99.90;;;;;;6215760;23;20457;-87
2022/09/28 10:13:56;;;;;;;11.82;5.22;;;10.70;99.90;;;;;;6189793;23;20009;-84
2022/09/28 10:16:23;;;;;;;12.60;6.10;;;10.60;99.90;;;;;;6193698;23;20021;-87
2022/09/28 10:18:48;;;;;;;14.82;7.38;;;10.90;99.90;;;;;;6189559;23;20012;-85
2022/09/28 10:21:17;;;;;;;12.77;5.15;;;10.80;99.90;;;;;;6189148;23;20020;-84
2022/09/28 10:23:44;;;;;;;11.60;4.57;;;10.60;99.90;;;;;;6188495;23;20048;-85
2022/09/28 10:26:15;;;;;;;15.32;6.47;;;10.50;99.90;;;;;;6215489;23;20318;-84
2022/09/28 10:29:15;;;;;;;13.13;5.82;;;10.70;99.90;;;;;;6215630;23;20020;-84
2022/09/28 10:31:49;;;;;;;13.05;5.63;;;11.20;99.90;;;;;;6215130;23;20017;-85
2022/09/28 10:34:17;;;;;;;12.07;5.07;;;12.30;99.90;;;;;;6187618;23;20024;-84
2022/09/28 10:37:03;;;;;;;11.98;5.43;;;11.90;99.90;;;;;;6190021;22;20017;-84
2022/09/28 10:39:32;;;;;;;12.55;5.28;;;13.10;99.90;;;;;;6183537;23;20075;-85
2022/09/28 10:42:05;;;;;;;11.98;5.05;;;12.70;99.90;;;;;;6184168;23;20052;-84
2022/09/28 10:44:33;;;;;;;11.48;4.88;;;13.20;99.90;;;;;;6184722;23;20075;-84
2022/09/28 10:47:06;;;;;;;10.90;4.90;;;13.40;99.90;;;;;;6186133;23;20440;-84
2022/09/28 10:49:40;;;;;;;11.70;4.70;;;13.80;99.90;;;;;;6186016;23;20048;-85
2022/09/28 10:52:35;;;;;;;11.32;4.50;;;13.80;99.90;;;;;;6158653;23;20035;-85
2022/09/28 10:55:03;;;;;;;13.30;5.28;;;13.70;99.90;;;;;;6183987;23;20017;-85
2022/09/28 10:57:34;;;;;;;10.27;3.90;;;14.00;99.90;;;;;;6182762;23;20028;-86
2022/09/28 11:00:01;;;;;;;9.95;3.80;;;13.50;99.90;;;;;;6183720;23;20021;-85
2022/09/28 11:02:36;;;;;;;10.32;4.18;;;13.40;99.90;;;;;;6183535;23;20345;-85
2022/09/28 11:05:04;;;;;;;10.57;4.45;;;13.30;99.90;;;;;;6182994;23;20393;-85
2022/09/28 11:07:32;;;;;;;11.57;4.53;;;13.40;99.90;;;;;;6185402;23;20013;-85
2022/09/28 11:10:00;;;;;;;10.95;4.22;;;13.50;99.90;;;;;;6185687;23;20017;-85
2022/09/28 11:12:40;;;;;;;11.88;4.55;;;14.10;99.90;;;;;;6182754;23;20027;-83
2022/09/28 11:15:15;;;;;;;10.30;4.20;;;14.30;99.90;;;;;;6183279;23;20044;-84
2022/09/28 11:17:42;;;;;;;10.18;4.07;;;14.60;99.90;;;;;;6184889;23;20488;-83
2022/09/28 11:20:23;;;;;;;14.95;7.47;;;15.00;99.90;;;;;;6180811;23;20048;-84
2022/09/28 11:22:57;;;;;;;10.55;4.43;;;14.70;99.90;;;;;;6182644;23;20021;-83
2022/09/28 11:25:25;;;;;;;12.38;4.63;;;14.60;99.90;;;;;;6181911;23;20033;-83
2022/09/28 11:27:51;;;;;;;9.50;3.80;;;14.50;99.90;;;;;;6184058;23;20009;-83
2022/09/28 11:30:41;;;;;;;9.50;3.90;;;14.50;99.90;;;;;;6182465;23;20021;-83
2022/09/28 11:33:19;;;;;;;11.07;4.47;;;15.10;99.90;;;;;;6181950;23;20056;-82
2022/09/28 11:36:12;;;;;;;11.13;4.60;;;14.70;99.90;;;;;;6211212;22;20018;-82
2022/09/28 11:39:02;;;;;;;10.80;4.47;;;14.80;99.90;;;;;;6276055;22;20082;-82
2022/09/28 11:41:31;;;;;;;16.10;8.32;;;15.00;99.90;;;;;;6247742;22;20280;-83
2022/09/28 11:44:09;;;;;;;21.23;11.90;;;14.90;99.90;;;;;;6248415;22;20012;-83
2022/09/28 11:46:50;;;;;;;12.45;6.28;;;14.60;99.90;;;;;;6247822;22;20844;-83
2022/09/28 11:49:18;;;;;;;11.63;4.35;;;14.30;99.90;;;;;;6276049;22;20015;-83
2022/09/28 11:51:48;;;;;;;12.50;5.55;;;14.30;99.90;;;;;;6276196;22;20019;-83
2022/09/28 11:54:22;;;;;;;10.65;3.75;;;14.00;99.90;;;;;;6274730;22;20019;-83
2022/09/28 11:56:49;;;;;;;10.02;3.75;;;14.00;99.90;;;;;;6275967;22;20455;-83
2022/09/28 11:59:45;;;;;;;14.05;10.63;;;13.90;99.90;;;;;;6248324;22;20447;-82
2022/09/28 12:02:20;;;;;;;10.23;5.07;;;14.00;99.90;;;;;;6275049;22;20023;-83
2022/09/28 12:04:55;;;;;;;9.68;4.28;;;14.20;99.90;;;;;;6258634;22;20020;-83
2022/09/28 12:07:43;;;;;;;9.45;3.65;;;14.30;99.90;;;;;;6275080;22;20019;-83
2022/09/28 12:10:16;;;;;;;9.60;4.35;;;14.70;99.90;;;;;;6275217;22;20019;-83
2022/09/28 12:12:52;;;;;;;9.57;4.17;;;14.80;99.90;;;;;;6275306;22;20121;-83
2022/09/28 12:15:22;;;;;;;9.68;4.00;;;14.50;99.90;;;;;;6246663;22;20027;-83
2022/09/28 12:20:40;;;;;;;9.30;3.60;;;15.10;99.90;;;;;;6275055;22;20077;-83
2022/09/28 12:23:33;;;;;;;8.68;2.97;;;15.50;99.90;;;;;;6272459;22;20023;-85
2022/09/28 12:26:02;;;;;;;8.88;3.30;;;15.60;99.90;;;;;;6248309;22;20447;-84
2022/09/28 12:28:28;;;;;;;7.75;2.85;;;16.30;99.90;;;;;;6246737;22;20016;-83
2022/09/28 12:30:56;;;;;;;7.80;2.78;;;16.10;99.90;;;;;;6247782;22;20347;-89
2022/09/28 12:33:21;;;;;;;9.38;3.40;;;16.10;99.90;;;;;;6247462;22;20145;-85
2022/09/28 12:36:25;;;;;;;7.50;2.58;;;15.70;99.90;;;;;;6247448;22;20122;-86
2022/09/28 12:39:28;;;;;;;9.32;3.03;;;15.70;99.90;;;;;;6272100;22;20031;-86
2022/09/28 12:42:26;;;;;;;7.57;2.50;;;15.20;99.90;;;;;;6248850;22;20432;-87
2022/09/28 12:45:27;;;;;;;6.93;2.38;;;15.00;99.90;;;;;;6247545;22;20397;-85
2022/09/28 12:48:35;;;;;;;7.22;2.55;;;14.90;99.90;;;;;;6169674;22;20023;-86
2022/09/28 12:51:22;;;;;;;7.20;2.47;;;14.80;99.90;;;;;;6192217;22;20012;-86
2022/09/28 12:53:54;;;;;;;7.10;2.30;;;14.70;99.90;;;;;;6275572;22;20435;-86
2022/09/28 12:57:00;;;;;;;8.07;2.40;;;14.60;99.90;;;;;;6219554;23;20356;-85
2022/09/28 12:59:38;;;;;;;11.10;2.60;;;14.40;99.90;;;;;;6214760;23;20420;-86
2022/09/28 13:02:47;;;;;;;7.43;2.70;;;14.30;99.90;;;;;;6216358;23;20009;-86
2022/09/28 13:05:43;;;;;;;8.57;2.60;;;14.20;99.90;;;;;;6214964;23;20055;-87
2022/09/28 13:08:49;;;;;;;7.05;2.40;;;13.90;99.90;;;;;;6216463;22;1126413;-86
2022/09/28 13:11:53;;;;;;;8.15;2.78;;;13.80;99.90;;;;;;6096782;23;20033;-87
2022/09/28 13:14:59;;;;;;;8.27;2.70;;;13.80;99.90;;;;;;6244679;22;20082;-87
2022/09/28 13:18:01;;;;;;;8.05;2.90;;;13.80;99.90;;;;;;6247817;22;20399;-88
2022/09/28 13:20:30;;;;;;;7.57;2.63;;;13.90;99.90;;;;;;6248964;22;20031;-87
2022/09/28 13:23:24;;;;;;;7.18;2.25;;;14.30;99.90;;;;;;6277537;22;20008;-86
2022/09/28 13:25:54;;;;;;;6.95;2.33;;;14.40;99.90;;;;;;6248968;22;20019;-86
2022/09/28 13:28:21;;;;;;;7.28;2.47;;;14.70;99.90;;;;;;6249857;22;20011;-87
2022/09/28 13:30:49;;;;;;;10.45;2.80;;;14.60;99.90;;;;;;6277173;22;20019;-87
2022/09/28 13:33:37;;;;;;;15.50;3.53;;;14.70;99.90;;;;;;6276052;22;20011;-87